sensor_id;sensor_type;location;lat;lon;timestamp;P1;durP1;ratioP1;P2;durP2;ratioP2
72586;SDS011;60621;49.576;11.024;2022-10-22T00:00:43;7.25;;;3.58;;
72586;SDS011;60621;49.576;11.024;2022-10-22T00:01:45;7.03;;;3.72;;
72586;SDS011;60621;49.576;11.024;2022-10-22T00:02:47;6.45;;;3.63;;
72586;SDS011;60621;49.576;11.024;2022-10-22T00:03:48;6.80;;;3.45;;
72586;SDS011;60621;49.576;11.024;2022-10-22T00:04:50;6.95;;;3.67;;
72586;SDS011;60621;49.576;11.024;2022-10-22T00:05:51;7.05;;;3.90;;
72586;SDS011;60621;49.576;11.024;2022-10-22T00:06:53;6.63;;;3.78;;
72586;SDS011;60621;49.576;11.024;2022-10-22T00:07:55;6.85;;;3.40;;
72586;SDS011;60621;49.576;11.024;2022-10-22T00:08:56;7.47;;;3.70;;
72586;SDS011;60621;49.576;11.024;2022-10-22T00:09:58;6.35;;;3.58;;
72586;SDS011;60621;49.576;11.024;2022-10-22T00:11:06;6.75;;;3.40;;
72586;SDS011;60621;49.576;11.024;2022-10-22T00:12:09;8.15;;;3.50;;
72586;SDS011;60621;49.576;11.024;2022-10-22T00:13:11;6.80;;;3.60;;
72586;SDS011;60621;49.576;11.024;2022-10-22T00:14:13;6.30;;;3.55;;
72586;SDS011;60621;49.576;11.024;2022-10-22T00:15:15;6.93;;;3.60;;
72586;SDS011;60621;49.576;11.024;2022-10-22T00:16:17;7.15;;;3.63;;
72586;SDS011;60621;49.576;11.024;2022-10-22T00:17:19;7.05;;;3.63;;
72586;SDS011;60621;49.576;11.024;2022-10-22T00:18:20;5.95;;;3.33;;
72586;SDS011;60621;49.576;11.024;2022-10-22T00:19:22;6.38;;;3.60;;
72586;SDS011;60621;49.576;11.024;2022-10-22T00:20:23;7.25;;;3.38;;
72586;SDS011;60621;49.576;11.024;2022-10-22T00:21:28;5.47;;;3.42;;
72586;SDS011;60621;49.576;11.024;2022-10-22T00:22:30;7.53;;;3.60;;
72586;SDS011;60621;49.576;11.024;2022-10-22T00:23:32;6.72;;;3.53;;
72586;SDS011;60621;49.576;11.024;2022-10-22T00:24:34;7.72;;;3.45;;
72586;SDS011;60621;49.576;11.024;2022-10-22T00:25:38;6.50;;;3.25;;
72586;SDS011;60621;49.576;11.024;2022-10-22T00:26:40;7.03;;;3.28;;
72586;SDS011;60621;49.576;11.024;2022-10-22T00:27:41;6.75;;;3.38;;
72586;SDS011;60621;49.576;11.024;2022-10-22T00:28:43;6.35;;;3.47;;
72586;SDS011;60621;49.576;11.024;2022-10-22T00:29:44;7.45;;;3.63;;
72586;SDS011;60621;49.576;11.024;2022-10-22T00:30:47;7.88;;;3.80;;
72586;SDS011;60621;49.576;11.024;2022-10-22T00:31:48;6.82;;;3.38;;
72586;SDS011;60621;49.576;11.024;2022-10-22T00:32:50;7.90;;;3.58;;
72586;SDS011;60621;49.576;11.024;2022-10-22T00:33:52;5.93;;;3.30;;
72586;SDS011;60621;49.576;11.024;2022-10-22T00:34:53;7.03;;;3.70;;
72586;SDS011;60621;49.576;11.024;2022-10-22T00:35:55;6.90;;;3.53;;
72586;SDS011;60621;49.576;11.024;2022-10-22T00:36:56;6.75;;;3.70;;
72586;SDS011;60621;49.576;11.024;2022-10-22T00:37:58;7.82;;;3.63;;
72586;SDS011;60621;49.576;11.024;2022-10-22T00:38:59;7.53;;;3.80;;
72586;SDS011;60621;49.576;11.024;2022-10-22T00:40:01;5.88;;;2.97;;
72586;SDS011;60621;49.576;11.024;2022-10-22T00:41:04;7.65;;;3.72;;
72586;SDS011;60621;49.576;11.024;2022-10-22T00:42:06;7.75;;;3.63;;
72586;SDS011;60621;49.576;11.024;2022-10-22T00:43:09;9.10;;;3.78;;
72586;SDS011;60621;49.576;11.024;2022-10-22T00:45:51;8.35;;;4.20;;
72586;SDS011;60621;49.576;11.024;2022-10-22T00:46:53;8.70;;;3.88;;
72586;SDS011;60621;49.576;11.024;2022-10-22T00:48:02;9.48;;;3.80;;
72586;SDS011;60621;49.576;11.024;2022-10-22T00:49:07;7.25;;;3.70;;
72586;SDS011;60621;49.576;11.024;2022-10-22T00:50:20;7.88;;;3.83;;
72586;SDS011;60621;49.576;11.024;2022-10-22T00:51:25;6.40;;;3.38;;
72586;SDS011;60621;49.576;11.024;2022-10-22T00:52:30;6.47;;;3.72;;
72586;SDS011;60621;49.576;11.024;2022-10-22T00:53:40;7.47;;;3.70;;
72586;SDS011;60621;49.576;11.024;2022-10-22T00:54:45;7.63;;;3.90;;
72586;SDS011;60621;49.576;11.024;2022-10-22T00:55:48;8.02;;;3.58;;
72586;SDS011;60621;49.576;11.024;2022-10-22T00:56:52;7.43;;;3.80;;
72586;SDS011;60621;49.576;11.024;2022-10-22T00:57:54;7.28;;;3.65;;
72586;SDS011;60621;49.576;11.024;2022-10-22T00:58:58;6.60;;;3.63;;
72586;SDS011;60621;49.576;11.024;2022-10-22T01:00:02;6.35;;;3.53;;
72586;SDS011;60621;49.576;11.024;2022-10-22T01:01:05;6.95;;;3.85;;
72586;SDS011;60621;49.576;11.024;2022-10-22T01:02:12;6.57;;;3.63;;
72586;SDS011;60621;49.576;11.024;2022-10-22T01:03:15;7.95;;;3.72;;
72586;SDS011;60621;49.576;11.024;2022-10-22T01:04:16;8.32;;;4.20;;
72586;SDS011;60621;49.576;11.024;2022-10-22T01:05:18;8.10;;;3.90;;
72586;SDS011;60621;49.576;11.024;2022-10-22T01:07:25;8.23;;;3.70;;
72586;SDS011;60621;49.576;11.024;2022-10-22T01:08:45;8.50;;;4.07;;
72586;SDS011;60621;49.576;11.024;2022-10-22T01:12:39;7.70;;;4.00;;
72586;SDS011;60621;49.576;11.024;2022-10-22T01:15:27;8.05;;;4.10;;
72586;SDS011;60621;49.576;11.024;2022-10-22T01:16:49;6.82;;;3.67;;
72586;SDS011;60621;49.576;11.024;2022-10-22T01:18:08;8.63;;;3.95;;
72586;SDS011;60621;49.576;11.024;2022-10-22T01:20:52;7.10;;;3.97;;
72586;SDS011;60621;49.576;11.024;2022-10-22T01:22:08;6.72;;;4.05;;
72586;SDS011;60621;49.576;11.024;2022-10-22T01:25:51;8.60;;;3.92;;
72586;SDS011;60621;49.576;11.024;2022-10-22T01:29:37;7.18;;;3.83;;
72586;SDS011;60621;49.576;11.024;2022-10-22T01:30:40;9.02;;;4.20;;
72586;SDS011;60621;49.576;11.024;2022-10-22T01:31:46;8.98;;;4.30;;
72586;SDS011;60621;49.576;11.024;2022-10-22T01:32:55;9.15;;;4.10;;
72586;SDS011;60621;49.576;11.024;2022-10-22T01:34:02;7.32;;;4.32;;
72586;SDS011;60621;49.576;11.024;2022-10-22T01:35:05;8.80;;;4.13;;
72586;SDS011;60621;49.576;11.024;2022-10-22T01:36:10;6.97;;;3.70;;
72586;SDS011;60621;49.576;11.024;2022-10-22T01:37:14;9.55;;;3.90;;
72586;SDS011;60621;49.576;11.024;2022-10-22T01:38:19;7.93;;;3.85;;
72586;SDS011;60621;49.576;11.024;2022-10-22T01:39:23;8.75;;;4.20;;
72586;SDS011;60621;49.576;11.024;2022-10-22T01:40:27;7.75;;;4.05;;
72586;SDS011;60621;49.576;11.024;2022-10-22T01:41:29;10.15;;;4.13;;
72586;SDS011;60621;49.576;11.024;2022-10-22T01:42:31;9.57;;;3.83;;
72586;SDS011;60621;49.576;11.024;2022-10-22T01:43:33;8.57;;;4.15;;
72586;SDS011;60621;49.576;11.024;2022-10-22T01:44:34;9.00;;;4.75;;
72586;SDS011;60621;49.576;11.024;2022-10-22T01:45:59;7.63;;;3.88;;
72586;SDS011;60621;49.576;11.024;2022-10-22T01:53:16;7.88;;;3.58;;
72586;SDS011;60621;49.576;11.024;2022-10-22T01:57:08;8.65;;;4.00;;
72586;SDS011;60621;49.576;11.024;2022-10-22T01:59:34;7.13;;;3.42;;
72586;SDS011;60621;49.576;11.024;2022-10-22T02:00:39;7.53;;;3.88;;
72586;SDS011;60621;49.576;11.024;2022-10-22T02:01:52;6.30;;;3.28;;
72586;SDS011;60621;49.576;11.024;2022-10-22T02:04:12;7.90;;;3.60;;
72586;SDS011;60621;49.576;11.024;2022-10-22T02:05:23;5.75;;;3.25;;
72586;SDS011;60621;49.576;11.024;2022-10-22T02:06:30;9.25;;;3.80;;
72586;SDS011;60621;49.576;11.024;2022-10-22T02:07:38;7.05;;;3.47;;
72586;SDS011;60621;49.576;11.024;2022-10-22T02:08:48;8.30;;;3.78;;
72586;SDS011;60621;49.576;11.024;2022-10-22T02:09:51;6.68;;;3.22;;
72586;SDS011;60621;49.576;11.024;2022-10-22T02:10:55;7.47;;;3.28;;
72586;SDS011;60621;49.576;11.024;2022-10-22T02:11:59;6.82;;;3.38;;
72586;SDS011;60621;49.576;11.024;2022-10-22T02:13:02;7.55;;;3.35;;
72586;SDS011;60621;49.576;11.024;2022-10-22T02:14:08;7.78;;;3.40;;
72586;SDS011;60621;49.576;11.024;2022-10-22T02:15:13;7.30;;;3.25;;
72586;SDS011;60621;49.576;11.024;2022-10-22T02:16:20;6.97;;;2.97;;
72586;SDS011;60621;49.576;11.024;2022-10-22T02:17:25;6.07;;;2.83;;
72586;SDS011;60621;49.576;11.024;2022-10-22T02:18:31;6.15;;;2.80;;
72586;SDS011;60621;49.576;11.024;2022-10-22T02:20:56;6.60;;;3.08;;
72586;SDS011;60621;49.576;11.024;2022-10-22T02:23:00;5.93;;;2.90;;
72586;SDS011;60621;49.576;11.024;2022-10-22T02:24:02;4.75;;;2.35;;
72586;SDS011;60621;49.576;11.024;2022-10-22T02:25:05;6.18;;;2.70;;
72586;SDS011;60621;49.576;11.024;2022-10-22T02:26:13;7.20;;;2.72;;
72586;SDS011;60621;49.576;11.024;2022-10-22T02:27:27;5.32;;;2.58;;
72586;SDS011;60621;49.576;11.024;2022-10-22T02:28:43;6.55;;;2.70;;
72586;SDS011;60621;49.576;11.024;2022-10-22T02:30:57;4.80;;;2.42;;
72586;SDS011;60621;49.576;11.024;2022-10-22T02:32:04;6.32;;;2.90;;
72586;SDS011;60621;49.576;11.024;2022-10-22T02:33:10;6.70;;;2.60;;
72586;SDS011;60621;49.576;11.024;2022-10-22T02:34:18;6.22;;;2.47;;
72586;SDS011;60621;49.576;11.024;2022-10-22T02:35:25;4.32;;;2.22;;
72586;SDS011;60621;49.576;11.024;2022-10-22T02:36:28;5.22;;;2.30;;
72586;SDS011;60621;49.576;11.024;2022-10-22T02:37:30;5.65;;;2.97;;
72586;SDS011;60621;49.576;11.024;2022-10-22T02:38:33;7.88;;;2.55;;
72586;SDS011;60621;49.576;11.024;2022-10-22T02:39:36;6.13;;;2.63;;
72586;SDS011;60621;49.576;11.024;2022-10-22T02:40:39;5.72;;;2.80;;
72586;SDS011;60621;49.576;11.024;2022-10-22T02:41:41;4.25;;;2.00;;
72586;SDS011;60621;49.576;11.024;2022-10-22T02:42:45;5.07;;;2.30;;
72586;SDS011;60621;49.576;11.024;2022-10-22T02:43:49;3.97;;;2.10;;
72586;SDS011;60621;49.576;11.024;2022-10-22T02:44:54;6.10;;;2.58;;
72586;SDS011;60621;49.576;11.024;2022-10-22T02:45:55;4.32;;;2.10;;
72586;SDS011;60621;49.576;11.024;2022-10-22T02:46:57;5.18;;;2.28;;
72586;SDS011;60621;49.576;11.024;2022-10-22T02:47:59;5.18;;;2.30;;
72586;SDS011;60621;49.576;11.024;2022-10-22T02:49:01;4.38;;;2.30;;
72586;SDS011;60621;49.576;11.024;2022-10-22T02:50:02;4.88;;;2.10;;
72586;SDS011;60621;49.576;11.024;2022-10-22T02:51:09;5.50;;;2.17;;
72586;SDS011;60621;49.576;11.024;2022-10-22T02:52:11;5.13;;;2.33;;
72586;SDS011;60621;49.576;11.024;2022-10-22T02:53:12;5.20;;;2.20;;
72586;SDS011;60621;49.576;11.024;2022-10-22T02:54:14;6.15;;;2.30;;
72586;SDS011;60621;49.576;11.024;2022-10-22T02:55:15;7.45;;;2.45;;
72586;SDS011;60621;49.576;11.024;2022-10-22T02:56:17;5.32;;;2.33;;
72586;SDS011;60621;49.576;11.024;2022-10-22T02:57:19;4.10;;;2.08;;
72586;SDS011;60621;49.576;11.024;2022-10-22T02:58:21;5.00;;;2.35;;
72586;SDS011;60621;49.576;11.024;2022-10-22T02:59:22;4.35;;;2.15;;
72586;SDS011;60621;49.576;11.024;2022-10-22T03:00:24;4.10;;;2.03;;
72586;SDS011;60621;49.576;11.024;2022-10-22T03:01:26;5.20;;;2.35;;
72586;SDS011;60621;49.576;11.024;2022-10-22T03:02:27;5.68;;;2.38;;
72586;SDS011;60621;49.576;11.024;2022-10-22T03:03:29;5.55;;;2.00;;
72586;SDS011;60621;49.576;11.024;2022-10-22T03:04:31;5.50;;;2.30;;
72586;SDS011;60621;49.576;11.024;2022-10-22T03:05:32;5.95;;;2.47;;
72586;SDS011;60621;49.576;11.024;2022-10-22T03:06:34;5.05;;;2.30;;
72586;SDS011;60621;49.576;11.024;2022-10-22T03:07:35;5.05;;;2.63;;
72586;SDS011;60621;49.576;11.024;2022-10-22T03:08:38;4.90;;;2.47;;
72586;SDS011;60621;49.576;11.024;2022-10-22T03:09:39;4.47;;;2.00;;
72586;SDS011;60621;49.576;11.024;2022-10-22T03:10:41;6.47;;;2.35;;
72586;SDS011;60621;49.576;11.024;2022-10-22T03:11:42;6.40;;;2.05;;
72586;SDS011;60621;49.576;11.024;2022-10-22T03:12:44;5.38;;;2.33;;
72586;SDS011;60621;49.576;11.024;2022-10-22T03:13:46;4.22;;;1.90;;
72586;SDS011;60621;49.576;11.024;2022-10-22T03:14:48;4.05;;;2.00;;
72586;SDS011;60621;49.576;11.024;2022-10-22T03:15:49;4.53;;;1.80;;
72586;SDS011;60621;49.576;11.024;2022-10-22T03:16:51;4.80;;;2.00;;
72586;SDS011;60621;49.576;11.024;2022-10-22T03:17:52;4.88;;;2.03;;
72586;SDS011;60621;49.576;11.024;2022-10-22T03:18:54;4.88;;;1.92;;
72586;SDS011;60621;49.576;11.024;2022-10-22T03:19:55;5.63;;;2.08;;
72586;SDS011;60621;49.576;11.024;2022-10-22T03:21:05;5.35;;;2.08;;
72586;SDS011;60621;49.576;11.024;2022-10-22T03:22:21;4.55;;;1.95;;
72586;SDS011;60621;49.576;11.024;2022-10-22T03:23:25;5.65;;;1.88;;
72586;SDS011;60621;49.576;11.024;2022-10-22T03:24:29;4.57;;;1.83;;
72586;SDS011;60621;49.576;11.024;2022-10-22T03:25:34;6.25;;;1.90;;
72586;SDS011;60621;49.576;11.024;2022-10-22T03:26:37;4.25;;;2.00;;
72586;SDS011;60621;49.576;11.024;2022-10-22T03:27:41;4.32;;;2.05;;
72586;SDS011;60621;49.576;11.024;2022-10-22T03:28:43;6.55;;;1.95;;
72586;SDS011;60621;49.576;11.024;2022-10-22T03:29:48;4.85;;;2.00;;
72586;SDS011;60621;49.576;11.024;2022-10-22T03:30:51;5.88;;;2.20;;
72586;SDS011;60621;49.576;11.024;2022-10-22T03:31:53;6.65;;;1.88;;
72586;SDS011;60621;49.576;11.024;2022-10-22T03:32:55;6.38;;;1.90;;
72586;SDS011;60621;49.576;11.024;2022-10-22T03:33:57;3.55;;;1.50;;
72586;SDS011;60621;49.576;11.024;2022-10-22T03:34:58;4.88;;;1.80;;
72586;SDS011;60621;49.576;11.024;2022-10-22T03:36:05;3.78;;;1.70;;
72586;SDS011;60621;49.576;11.024;2022-10-22T03:37:08;4.35;;;1.90;;
72586;SDS011;60621;49.576;11.024;2022-10-22T03:38:10;5.22;;;1.83;;
72586;SDS011;60621;49.576;11.024;2022-10-22T03:39:12;4.75;;;1.75;;
72586;SDS011;60621;49.576;11.024;2022-10-22T03:40:16;4.45;;;1.75;;
72586;SDS011;60621;49.576;11.024;2022-10-22T03:41:19;5.20;;;1.75;;
72586;SDS011;60621;49.576;11.024;2022-10-22T03:42:21;4.25;;;2.03;;
72586;SDS011;60621;49.576;11.024;2022-10-22T03:43:23;3.60;;;1.80;;
72586;SDS011;60621;49.576;11.024;2022-10-22T03:44:24;5.38;;;2.05;;
72586;SDS011;60621;49.576;11.024;2022-10-22T03:45:27;4.30;;;2.10;;
72586;SDS011;60621;49.576;11.024;2022-10-22T03:46:29;4.38;;;1.85;;
72586;SDS011;60621;49.576;11.024;2022-10-22T03:47:31;3.63;;;1.65;;
72586;SDS011;60621;49.576;11.024;2022-10-22T03:48:32;5.30;;;2.40;;
72586;SDS011;60621;49.576;11.024;2022-10-22T03:49:34;5.45;;;2.10;;
72586;SDS011;60621;49.576;11.024;2022-10-22T03:50:35;4.60;;;2.00;;
72586;SDS011;60621;49.576;11.024;2022-10-22T03:51:37;3.95;;;1.80;;
72586;SDS011;60621;49.576;11.024;2022-10-22T03:52:39;3.75;;;1.80;;
72586;SDS011;60621;49.576;11.024;2022-10-22T03:53:40;4.82;;;2.00;;
72586;SDS011;60621;49.576;11.024;2022-10-22T03:54:43;4.43;;;2.00;;
72586;SDS011;60621;49.576;11.024;2022-10-22T03:55:45;5.00;;;1.95;;
72586;SDS011;60621;49.576;11.024;2022-10-22T03:56:46;6.85;;;1.90;;
72586;SDS011;60621;49.576;11.024;2022-10-22T03:57:48;5.57;;;1.88;;
72586;SDS011;60621;49.576;11.024;2022-10-22T03:58:50;4.32;;;1.83;;
72586;SDS011;60621;49.576;11.024;2022-10-22T03:59:51;7.57;;;2.08;;
72586;SDS011;60621;49.576;11.024;2022-10-22T04:00:53;4.65;;;1.98;;
72586;SDS011;60621;49.576;11.024;2022-10-22T04:01:54;5.65;;;1.90;;
72586;SDS011;60621;49.576;11.024;2022-10-22T04:02:55;6.20;;;1.92;;
72586;SDS011;60621;49.576;11.024;2022-10-22T04:03:58;4.38;;;2.00;;
72586;SDS011;60621;49.576;11.024;2022-10-22T04:05:00;4.50;;;1.80;;
72586;SDS011;60621;49.576;11.024;2022-10-22T04:06:02;5.57;;;1.88;;
72586;SDS011;60621;49.576;11.024;2022-10-22T04:07:09;4.28;;;1.70;;
72586;SDS011;60621;49.576;11.024;2022-10-22T04:08:10;4.55;;;1.75;;
72586;SDS011;60621;49.576;11.024;2022-10-22T04:09:12;4.65;;;1.83;;
72586;SDS011;60621;49.576;11.024;2022-10-22T04:10:14;5.38;;;2.00;;
72586;SDS011;60621;49.576;11.024;2022-10-22T04:11:15;4.50;;;1.80;;
72586;SDS011;60621;49.576;11.024;2022-10-22T04:12:17;4.90;;;1.80;;
72586;SDS011;60621;49.576;11.024;2022-10-22T04:13:19;5.15;;;1.83;;
72586;SDS011;60621;49.576;11.024;2022-10-22T04:14:20;4.82;;;1.77;;
72586;SDS011;60621;49.576;11.024;2022-10-22T04:15:22;5.55;;;1.70;;
72586;SDS011;60621;49.576;11.024;2022-10-22T04:16:26;5.13;;;2.00;;
72586;SDS011;60621;49.576;11.024;2022-10-22T04:17:36;5.80;;;1.80;;
72586;SDS011;60621;49.576;11.024;2022-10-22T04:18:38;5.35;;;1.90;;
72586;SDS011;60621;49.576;11.024;2022-10-22T04:19:40;4.10;;;1.73;;
72586;SDS011;60621;49.576;11.024;2022-10-22T04:20:42;7.20;;;2.00;;
72586;SDS011;60621;49.576;11.024;2022-10-22T04:21:43;4.72;;;1.70;;
72586;SDS011;60621;49.576;11.024;2022-10-22T04:22:45;4.38;;;1.95;;
72586;SDS011;60621;49.576;11.024;2022-10-22T04:23:47;4.85;;;2.08;;
72586;SDS011;60621;49.576;11.024;2022-10-22T04:24:51;6.18;;;1.90;;
72586;SDS011;60621;49.576;11.024;2022-10-22T04:26:03;4.80;;;2.00;;
72586;SDS011;60621;49.576;11.024;2022-10-22T04:27:06;4.88;;;2.03;;
72586;SDS011;60621;49.576;11.024;2022-10-22T04:28:08;4.38;;;1.83;;
72586;SDS011;60621;49.576;11.024;2022-10-22T04:29:10;6.78;;;1.73;;
72586;SDS011;60621;49.576;11.024;2022-10-22T04:30:16;5.68;;;2.22;;
72586;SDS011;60621;49.576;11.024;2022-10-22T04:31:19;4.57;;;1.70;;
72586;SDS011;60621;49.576;11.024;2022-10-22T04:32:23;4.43;;;1.80;;
72586;SDS011;60621;49.576;11.024;2022-10-22T04:33:25;5.80;;;1.80;;
72586;SDS011;60621;49.576;11.024;2022-10-22T04:34:27;7.72;;;1.90;;
72586;SDS011;60621;49.576;11.024;2022-10-22T04:35:29;4.18;;;1.63;;
72586;SDS011;60621;49.576;11.024;2022-10-22T04:36:30;4.55;;;1.92;;
72586;SDS011;60621;49.576;11.024;2022-10-22T04:37:32;5.13;;;1.80;;
72586;SDS011;60621;49.576;11.024;2022-10-22T04:38:34;4.88;;;1.90;;
72586;SDS011;60621;49.576;11.024;2022-10-22T04:39:35;3.70;;;1.50;;
72586;SDS011;60621;49.576;11.024;2022-10-22T04:40:37;6.20;;;1.92;;
72586;SDS011;60621;49.576;11.024;2022-10-22T04:41:38;5.40;;;1.80;;
72586;SDS011;60621;49.576;11.024;2022-10-22T04:42:40;4.72;;;1.50;;
72586;SDS011;60621;49.576;11.024;2022-10-22T04:43:42;3.53;;;1.40;;
72586;SDS011;60621;49.576;11.024;2022-10-22T04:44:43;4.47;;;1.80;;
72586;SDS011;60621;49.576;11.024;2022-10-22T04:45:45;6.00;;;1.73;;
72586;SDS011;60621;49.576;11.024;2022-10-22T04:46:46;5.28;;;1.60;;
72586;SDS011;60621;49.576;11.024;2022-10-22T04:47:48;4.45;;;1.75;;
72586;SDS011;60621;49.576;11.024;2022-10-22T04:48:50;3.88;;;1.30;;
72586;SDS011;60621;49.576;11.024;2022-10-22T04:49:52;4.25;;;1.77;;
72586;SDS011;60621;49.576;11.024;2022-10-22T04:50:55;4.68;;;1.83;;
72586;SDS011;60621;49.576;11.024;2022-10-22T04:51:59;4.63;;;1.50;;
72586;SDS011;60621;49.576;11.024;2022-10-22T04:53:00;5.05;;;1.55;;
72586;SDS011;60621;49.576;11.024;2022-10-22T04:54:02;4.28;;;1.60;;
72586;SDS011;60621;49.576;11.024;2022-10-22T04:55:04;4.25;;;1.52;;
72586;SDS011;60621;49.576;11.024;2022-10-22T04:56:12;3.10;;;1.48;;
72586;SDS011;60621;49.576;11.024;2022-10-22T04:57:16;3.30;;;1.30;;
72586;SDS011;60621;49.576;11.024;2022-10-22T04:58:18;3.78;;;1.40;;
72586;SDS011;60621;49.576;11.024;2022-10-22T04:59:19;4.25;;;1.58;;
72586;SDS011;60621;49.576;11.024;2022-10-22T05:00:20;4.15;;;1.60;;
72586;SDS011;60621;49.576;11.024;2022-10-22T05:01:23;4.18;;;1.70;;
72586;SDS011;60621;49.576;11.024;2022-10-22T05:02:30;3.50;;;1.40;;
72586;SDS011;60621;49.576;11.024;2022-10-22T05:03:32;4.03;;;1.80;;
72586;SDS011;60621;49.576;11.024;2022-10-22T05:04:33;6.80;;;1.60;;
72586;SDS011;60621;49.576;11.024;2022-10-22T05:05:34;4.53;;;1.80;;
72586;SDS011;60621;49.576;11.024;2022-10-22T05:06:36;4.15;;;1.80;;
72586;SDS011;60621;49.576;11.024;2022-10-22T05:07:38;4.10;;;1.70;;
72586;SDS011;60621;49.576;11.024;2022-10-22T05:08:40;4.57;;;1.77;;
72586;SDS011;60621;49.576;11.024;2022-10-22T05:09:41;6.30;;;2.00;;
72586;SDS011;60621;49.576;11.024;2022-10-22T05:10:43;4.45;;;1.80;;
72586;SDS011;60621;49.576;11.024;2022-10-22T05:11:46;4.80;;;1.75;;
72586;SDS011;60621;49.576;11.024;2022-10-22T05:12:49;4.18;;;2.00;;
72586;SDS011;60621;49.576;11.024;2022-10-22T05:13:51;5.45;;;1.83;;
72586;SDS011;60621;49.576;11.024;2022-10-22T05:14:53;4.82;;;1.83;;
72586;SDS011;60621;49.576;11.024;2022-10-22T05:15:54;3.88;;;1.77;;
72586;SDS011;60621;49.576;11.024;2022-10-22T05:16:56;3.40;;;1.52;;
72586;SDS011;60621;49.576;11.024;2022-10-22T05:17:58;4.65;;;1.95;;
72586;SDS011;60621;49.576;11.024;2022-10-22T05:19:00;5.82;;;1.70;;
72586;SDS011;60621;49.576;11.024;2022-10-22T05:20:03;3.70;;;1.52;;
72586;SDS011;60621;49.576;11.024;2022-10-22T05:21:12;3.83;;;1.63;;
72586;SDS011;60621;49.576;11.024;2022-10-22T05:22:17;4.07;;;1.48;;
72586;SDS011;60621;49.576;11.024;2022-10-22T05:23:18;5.18;;;1.77;;
72586;SDS011;60621;49.576;11.024;2022-10-22T05:24:20;4.88;;;1.83;;
72586;SDS011;60621;49.576;11.024;2022-10-22T05:25:21;4.28;;;1.73;;
72586;SDS011;60621;49.576;11.024;2022-10-22T05:26:23;4.90;;;1.80;;
72586;SDS011;60621;49.576;11.024;2022-10-22T05:27:25;4.05;;;1.70;;
72586;SDS011;60621;49.576;11.024;2022-10-22T05:28:27;4.60;;;1.65;;
72586;SDS011;60621;49.576;11.024;2022-10-22T05:29:28;4.72;;;1.50;;
72586;SDS011;60621;49.576;11.024;2022-10-22T05:30:30;3.72;;;1.60;;
72586;SDS011;60621;49.576;11.024;2022-10-22T05:31:31;4.13;;;1.67;;
72586;SDS011;60621;49.576;11.024;2022-10-22T05:32:33;3.80;;;1.45;;
72586;SDS011;60621;49.576;11.024;2022-10-22T05:33:35;6.35;;;1.60;;
72586;SDS011;60621;49.576;11.024;2022-10-22T05:34:37;4.65;;;1.70;;
72586;SDS011;60621;49.576;11.024;2022-10-22T05:35:38;3.70;;;1.23;;
72586;SDS011;60621;49.576;11.024;2022-10-22T05:36:45;3.83;;;1.65;;
72586;SDS011;60621;49.576;11.024;2022-10-22T05:37:47;4.22;;;1.52;;
72586;SDS011;60621;49.576;11.024;2022-10-22T05:38:48;4.18;;;1.50;;
72586;SDS011;60621;49.576;11.024;2022-10-22T05:39:50;4.10;;;1.80;;
72586;SDS011;60621;49.576;11.024;2022-10-22T05:41:14;4.03;;;1.60;;
72586;SDS011;60621;49.576;11.024;2022-10-22T05:42:17;4.70;;;1.38;;
72586;SDS011;60621;49.576;11.024;2022-10-22T05:43:19;3.70;;;1.50;;
72586;SDS011;60621;49.576;11.024;2022-10-22T05:44:20;4.22;;;1.40;;
72586;SDS011;60621;49.576;11.024;2022-10-22T05:45:22;4.60;;;1.60;;
72586;SDS011;60621;49.576;11.024;2022-10-22T05:46:24;3.92;;;1.73;;
72586;SDS011;60621;49.576;11.024;2022-10-22T05:47:30;4.47;;;1.70;;
72586;SDS011;60621;49.576;11.024;2022-10-22T05:48:32;5.55;;;1.83;;
72586;SDS011;60621;49.576;11.024;2022-10-22T05:49:33;4.40;;;1.70;;
72586;SDS011;60621;49.576;11.024;2022-10-22T05:50:35;4.30;;;1.65;;
72586;SDS011;60621;49.576;11.024;2022-10-22T05:51:37;4.47;;;1.75;;
72586;SDS011;60621;49.576;11.024;2022-10-22T05:52:39;4.18;;;1.90;;
72586;SDS011;60621;49.576;11.024;2022-10-22T05:53:41;5.13;;;2.25;;
72586;SDS011;60621;49.576;11.024;2022-10-22T05:54:43;4.38;;;2.00;;
72586;SDS011;60621;49.576;11.024;2022-10-22T05:55:44;3.72;;;1.80;;
72586;SDS011;60621;49.576;11.024;2022-10-22T05:56:46;4.10;;;2.03;;
72586;SDS011;60621;49.576;11.024;2022-10-22T05:57:48;5.50;;;1.80;;
72586;SDS011;60621;49.576;11.024;2022-10-22T05:58:50;4.53;;;1.63;;
72586;SDS011;60621;49.576;11.024;2022-10-22T05:59:52;4.68;;;2.08;;
72586;SDS011;60621;49.576;11.024;2022-10-22T06:00:53;3.90;;;1.75;;
72586;SDS011;60621;49.576;11.024;2022-10-22T06:01:56;3.70;;;1.65;;
72586;SDS011;60621;49.576;11.024;2022-10-22T06:02:58;3.42;;;1.63;;
72586;SDS011;60621;49.576;11.024;2022-10-22T06:04:00;7.13;;;1.77;;
72586;SDS011;60621;49.576;11.024;2022-10-22T06:05:03;5.20;;;1.50;;
72586;SDS011;60621;49.576;11.024;2022-10-22T06:06:28;8.43;;;5.05;;
72586;SDS011;60621;49.576;11.024;2022-10-22T06:07:38;30.08;;;18.85;;
72586;SDS011;60621;49.576;11.024;2022-10-22T06:08:39;28.58;;;19.20;;
72586;SDS011;60621;49.576;11.024;2022-10-22T06:09:41;26.75;;;17.05;;
72586;SDS011;60621;49.576;11.024;2022-10-22T06:10:43;22.70;;;14.25;;
72586;SDS011;60621;49.576;11.024;2022-10-22T06:11:45;17.65;;;10.43;;
72586;SDS011;60621;49.576;11.024;2022-10-22T06:12:47;13.43;;;8.52;;
72586;SDS011;60621;49.576;11.024;2022-10-22T06:13:49;10.90;;;6.47;;
72586;SDS011;60621;49.576;11.024;2022-10-22T06:14:52;9.38;;;5.28;;
72586;SDS011;60621;49.576;11.024;2022-10-22T06:15:53;7.05;;;3.92;;
72586;SDS011;60621;49.576;11.024;2022-10-22T06:16:57;7.25;;;3.38;;
72586;SDS011;60621;49.576;11.024;2022-10-22T06:18:00;5.18;;;2.50;;
72586;SDS011;60621;49.576;11.024;2022-10-22T06:19:02;4.30;;;2.00;;
72586;SDS011;60621;49.576;11.024;2022-10-22T06:20:03;4.18;;;1.88;;
72586;SDS011;60621;49.576;11.024;2022-10-22T06:21:11;4.32;;;1.70;;
72586;SDS011;60621;49.576;11.024;2022-10-22T06:22:14;3.95;;;1.60;;
72586;SDS011;60621;49.576;11.024;2022-10-22T06:23:16;3.78;;;1.40;;
72586;SDS011;60621;49.576;11.024;2022-10-22T06:24:17;4.50;;;1.60;;
72586;SDS011;60621;49.576;11.024;2022-10-22T06:25:19;4.25;;;1.55;;
72586;SDS011;60621;49.576;11.024;2022-10-22T06:26:21;4.28;;;1.35;;
72586;SDS011;60621;49.576;11.024;2022-10-22T06:27:22;3.88;;;1.27;;
72586;SDS011;60621;49.576;11.024;2022-10-22T06:28:23;4.68;;;1.55;;
72586;SDS011;60621;49.576;11.024;2022-10-22T06:29:25;3.50;;;1.20;;
72586;SDS011;60621;49.576;11.024;2022-10-22T06:30:26;3.60;;;1.45;;
72586;SDS011;60621;49.576;11.024;2022-10-22T06:31:28;4.50;;;1.40;;
72586;SDS011;60621;49.576;11.024;2022-10-22T06:32:36;4.10;;;1.70;;
72586;SDS011;60621;49.576;11.024;2022-10-22T06:33:38;4.13;;;1.65;;
72586;SDS011;60621;49.576;11.024;2022-10-22T06:34:42;3.28;;;1.30;;
72586;SDS011;60621;49.576;11.024;2022-10-22T06:35:44;4.10;;;1.40;;
72586;SDS011;60621;49.576;11.024;2022-10-22T06:36:46;3.72;;;1.52;;
72586;SDS011;60621;49.576;11.024;2022-10-22T06:37:47;6.38;;;1.58;;
72586;SDS011;60621;49.576;11.024;2022-10-22T06:38:53;3.63;;;1.60;;
72586;SDS011;60621;49.576;11.024;2022-10-22T06:39:55;4.28;;;1.65;;
72586;SDS011;60621;49.576;11.024;2022-10-22T06:41:00;7.55;;;1.55;;
72586;SDS011;60621;49.576;11.024;2022-10-22T06:42:06;4.40;;;1.40;;
72586;SDS011;60621;49.576;11.024;2022-10-22T06:43:08;4.03;;;1.60;;
72586;SDS011;60621;49.576;11.024;2022-10-22T06:44:12;3.13;;;1.30;;
72586;SDS011;60621;49.576;11.024;2022-10-22T06:45:15;4.10;;;1.20;;